Time;durP1;ratioP1;P1;durP2;ratioP2;P2;SDS_P1;SDS_P2;PMS_P1;PMS_P2;Temp;Humidity;BMP_temperature;BMP_pressure;BME280_temperature;BME280_humidity;BME280_pressure;Samples;Min_cycle;Max_cycle;Signal;HPM_P1;HPM_P2
2021/06/07 00:01:25;;;;;;;3.05;1.08;;;18.10;99.90;;;;;;5120046;27;20031;-72
2021/06/07 00:03:51;;;;;;;3.20;0.60;;;18.00;99.90;;;;;;5125891;27;20039;-72
2021/06/07 00:06:18;;;;;;;1.77;0.60;;;18.00;99.90;;;;;;5124830;27;20027;-72
2021/06/07 00:08:45;;;;;;;1.23;0.57;;;18.00;99.90;;;;;;5122901;27;20039;-72
2021/06/07 00:11:12;;;;;;;2.28;0.55;;;18.00;99.90;;;;;;5124496;27;20023;-72
2021/06/07 00:13:39;;;;;;;2.05;0.60;;;18.10;99.90;;;;;;5121009;27;20047;-72
2021/06/07 00:16:05;;;;;;;2.30;0.60;;;18.10;99.90;;;;;;5120518;27;20049;-72
2021/06/07 00:18:31;;;;;;;2.03;0.73;;;18.00;99.90;;;;;;5121700;27;20569;-72
2021/06/07 00:21:08;;;;;;;1.58;0.60;;;18.10;99.90;;;;;;5122515;27;20035;-72
2021/06/07 00:23:34;;;;;;;2.63;0.50;;;18.20;99.90;;;;;;5115101;27;20107;-72
2021/06/07 00:26:01;;;;;;;2.85;0.80;;;18.10;99.90;;;;;;5110167;28;20148;-72
2021/06/07 00:28:27;;;;;;;1.67;0.80;;;18.10;99.90;;;;;;5110195;28;20236;-72
2021/06/07 00:30:52;;;;;;;1.10;0.50;;;18.10;99.90;;;;;;5119454;27;20484;-72
2021/06/07 00:33:18;;;;;;;1.48;0.70;;;18.00;99.90;;;;;;5124299;28;20076;-72
2021/06/07 00:35:44;;;;;;;1.10;0.50;;;18.00;99.90;;;;;;5124036;27;20031;-72
2021/06/07 00:38:10;;;;;;;1.50;0.60;;;18.00;99.90;;;;;;5124421;27;20468;-72
2021/06/07 00:40:36;;;;;;;4.25;2.00;;;17.80;99.90;;;;;;5120520;27;20023;-72
2021/06/07 00:43:02;;;;;;;4.28;2.53;;;17.80;99.90;;;;;;5113544;28;20045;-72
2021/06/07 00:45:33;;;;;;;2.58;1.40;;;17.80;99.90;;;;;;5110006;27;20038;-72
2021/06/07 00:48:01;;;;;;;1.27;0.80;;;17.80;99.90;;;;;;5110662;27;20118;-72
2021/06/07 00:50:50;;;;;;;4.15;0.85;;;17.70;99.90;;;;;;5123951;27;20023;-72
2021/06/07 00:53:17;;;;;;;3.08;0.60;;;17.80;99.90;;;;;;5114568;28;20032;-72
2021/06/07 00:56:05;;;;;;;4.10;0.70;;;17.70;99.90;;;;;;5121521;28;20039;-72
2021/06/07 00:58:36;;;;;;;2.03;0.98;;;17.70;99.90;;;;;;5118902;28;20151;-72
2021/06/07 01:01:04;;;;;;;1.55;0.80;;;17.70;99.90;;;;;;5114204;28;20460;-72
2021/06/07 01:03:30;;;;;;;2.50;0.85;;;17.70;99.90;;;;;;5110327;28;20543;-72
2021/06/07 01:05:57;;;;;;;1.83;0.73;;;17.70;99.90;;;;;;5112326;28;20037;-72
2021/06/07 01:08:23;;;;;;;3.42;0.90;;;17.70;99.90;;;;;;5113888;28;20361;-72
2021/06/07 01:10:50;;;;;;;1.67;0.90;;;17.70;99.90;;;;;;5105494;28;20035;-72
2021/06/07 01:13:17;;;;;;;5.03;1.17;;;17.70;99.90;;;;;;5111783;28;20698;-72
2021/06/07 01:15:44;;;;;;;3.42;0.80;;;17.70;99.90;;;;;;5120947;27;20038;-72
2021/06/07 01:18:11;;;;;;;3.03;1.20;;;17.60;99.90;;;;;;5118264;27;20047;-72
2021/06/07 01:20:37;;;;;;;2.15;0.90;;;17.60;99.90;;;;;;5117188;27;20039;-72
2021/06/07 01:23:04;;;;;;;1.48;0.82;;;17.60;99.90;;;;;;5121833;27;20030;-72
2021/06/07 01:25:34;;;;;;;3.53;0.70;;;17.60;99.90;;;;;;5115604;28;20036;-72
2021/06/07 01:28:02;;;;;;;2.30;0.77;;;17.60;99.90;;;;;;5095591;27;20040;-72
2021/06/07 01:30:33;;;;;;;3.55;0.90;;;17.60;99.90;;;;;;5125947;27;20067;-72
2021/06/07 01:33:00;;;;;;;1.85;0.77;;;17.50;99.90;;;;;;5118722;27;20027;-72
2021/06/07 01:35:26;;;;;;;3.08;1.00;;;17.70;99.90;;;;;;5118207;27;20259;-72
2021/06/07 01:37:54;;;;;;;5.00;1.17;;;17.60;99.90;;;;;;5118532;27;20053;-72
2021/06/07 01:40:23;;;;;;;2.13;0.95;;;17.50;99.90;;;;;;5113845;27;20024;-72
2021/06/07 01:42:49;;;;;;;2.15;0.95;;;17.50;99.90;;;;;;5115193;27;20031;-73
2021/06/07 01:45:18;;;;;;;3.25;1.27;;;17.40;99.90;;;;;;5114710;27;20027;-72
2021/06/07 01:47:44;;;;;;;2.55;1.10;;;17.50;99.90;;;;;;5113628;27;20026;-72
2021/06/07 01:50:10;;;;;;;2.70;1.40;;;17.50;99.90;;;;;;5117088;27;20031;-72
2021/06/07 01:52:44;;;;;;;2.80;1.27;;;17.50;99.90;;;;;;5119151;27;20027;-73
2021/06/07 01:55:22;;;;;;;2.03;1.00;;;17.50;99.90;;;;;;5117010;27;20506;-72
2021/06/07 01:57:49;;;;;;;2.53;1.10;;;17.50;99.90;;;;;;5108852;27;20528;-72
2021/06/07 02:00:24;;;;;;;3.03;1.20;;;17.40;99.90;;;;;;5098404;27;20027;-72
2021/06/07 02:02:49;;;;;;;3.05;1.33;;;17.40;99.90;;;;;;5119709;27;20039;-72
2021/06/07 02:05:20;;;;;;;3.67;1.10;;;17.40;99.90;;;;;;5115986;27;20058;-72
2021/06/07 02:07:54;;;;;;;2.53;1.30;;;17.30;99.90;;;;;;5111126;27;20092;-72
2021/06/07 02:10:22;;;;;;;2.25;1.00;;;17.30;99.90;;;;;;5113341;27;20028;-72
2021/06/07 02:12:48;;;;;;;4.78;1.20;;;17.40;99.90;;;;;;5117647;27;20275;-72
2021/06/07 02:15:15;;;;;;;1.67;0.93;;;17.20;99.90;;;;;;5092924;28;20036;-72
2021/06/07 02:17:41;;;;;;;4.63;1.30;;;17.30;99.90;;;;;;5112974;27;20068;-72
2021/06/07 02:20:11;;;;;;;2.22;0.98;;;17.40;99.90;;;;;;5094266;27;20366;-72
2021/06/07 02:22:39;;;;;;;5.65;1.08;;;17.40;99.90;;;;;;5112560;27;20400;-72
2021/06/07 02:25:06;;;;;;;6.60;1.30;;;17.50;99.90;;;;;;5095963;27;20127;-72
2021/06/07 02:27:32;;;;;;;4.78;1.23;;;17.30;99.90;;;;;;5113431;27;20020;-73
2021/06/07 02:29:59;;;;;;;2.33;1.10;;;17.30;99.90;;;;;;5114042;27;20438;-72
2021/06/07 02:32:24;;;;;;;4.25;1.10;;;17.40;99.90;;;;;;5093929;28;20024;-72
2021/06/07 02:34:50;;;;;;;2.88;1.15;;;17.30;99.90;;;;;;5114332;27;20035;-72
2021/06/07 02:37:18;;;;;;;3.60;1.20;;;17.40;99.90;;;;;;5116271;27;20080;-72
2021/06/07 02:39:44;;;;;;;2.53;1.00;;;17.40;99.90;;;;;;5118936;27;20434;-73
2021/06/07 02:42:11;;;;;;;3.17;1.33;;;17.40;99.90;;;;;;5115136;27;20024;-72
2021/06/07 02:44:37;;;;;;;4.32;0.90;;;17.40;99.90;;;;;;5121115;27;20055;-72
2021/06/07 02:47:03;;;;;;;2.72;0.90;;;17.40;99.90;;;;;;5114162;27;20598;-72
2021/06/07 02:49:29;;;;;;;2.50;0.98;;;17.50;99.90;;;;;;5094911;28;20176;-72
2021/06/07 02:51:55;;;;;;;4.20;1.08;;;17.50;99.90;;;;;;5114055;27;20880;-72
2021/06/07 02:54:21;;;;;;;1.50;0.95;;;17.50;99.90;;;;;;5121066;27;20032;-73
2021/06/07 02:56:46;;;;;;;4.82;1.05;;;17.50;99.90;;;;;;5113071;27;20061;-72
2021/06/07 02:59:12;;;;;;;3.20;0.90;;;17.50;99.90;;;;;;5102719;27;20409;-73
2021/06/07 03:01:37;;;;;;;4.57;1.20;;;17.50;99.90;;;;;;5113431;27;20580;-72
2021/06/07 03:04:03;;;;;;;2.53;0.98;;;17.40;99.90;;;;;;5112263;27;20028;-72
2021/06/07 03:06:29;;;;;;;3.38;0.88;;;17.40;99.90;;;;;;5114269;27;20072;-73
2021/06/07 03:08:55;;;;;;;3.42;1.30;;;17.40;99.90;;;;;;5100783;27;20042;-72
2021/06/07 03:11:20;;;;;;;3.20;1.33;;;17.40;99.90;;;;;;5090218;27;20027;-72
2021/06/07 03:13:46;;;;;;;3.13;1.60;;;17.30;99.90;;;;;;5115315;27;20039;-72
2021/06/07 03:16:12;;;;;;;4.75;1.38;;;17.30;99.90;;;;;;5106392;27;20484;-72
2021/06/07 03:18:39;;;;;;;7.28;1.80;;;17.30;99.90;;;;;;5116542;27;20229;-72
2021/06/07 03:21:06;;;;;;;4.43;1.42;;;17.30;99.90;;;;;;5116616;27;20084;-73
2021/06/07 03:23:34;;;;;;;3.45;1.33;;;17.20;99.90;;;;;;5116576;27;20121;-72
2021/06/07 03:26:00;;;;;;;2.97;1.50;;;17.20;99.90;;;;;;5103804;27;20035;-72
2021/06/07 03:28:27;;;;;;;3.28;1.80;;;17.20;99.90;;;;;;5111997;27;20118;-72
2021/06/07 03:30:53;;;;;;;5.18;1.60;;;17.20;99.90;;;;;;5119908;27;20035;-72
2021/06/07 03:33:20;;;;;;;2.78;1.38;;;17.20;99.90;;;;;;5115027;27;20101;-72
2021/06/07 03:35:48;;;;;;;5.22;1.90;;;17.20;99.90;;;;;;5100598;27;20061;-72
2021/06/07 03:38:15;;;;;;;4.40;1.80;;;17.20;99.90;;;;;;5113369;27;20030;-72
2021/06/07 03:40:45;;;;;;;2.80;1.58;;;17.20;99.90;;;;;;5099779;27;20054;-72
2021/06/07 03:43:11;;;;;;;3.63;1.30;;;17.20;99.90;;;;;;5096111;27;20046;-72
2021/06/07 03:45:37;;;;;;;5.85;1.90;;;17.10;99.90;;;;;;5118183;27;20031;-72
2021/06/07 03:48:04;;;;;;;2.92;1.60;;;17.10;99.90;;;;;;5115777;27;20131;-72
2021/06/07 03:50:31;;;;;;;5.20;1.45;;;17.10;99.90;;;;;;5116173;27;20042;-72
2021/06/07 03:52:57;;;;;;;3.72;1.52;;;17.20;99.90;;;;;;5107676;27;20032;-73
2021/06/07 03:55:25;;;;;;;5.85;1.77;;;17.20;99.90;;;;;;5114238;27;20044;-72
2021/06/07 03:57:52;;;;;;;4.43;1.55;;;17.10;99.90;;;;;;5108775;27;20496;-72
2021/06/07 04:00:21;;;;;;;4.38;1.60;;;17.10;99.90;;;;;;5115411;27;20043;-72
2021/06/07 04:02:47;;;;;;;4.53;1.50;;;17.10;99.90;;;;;;5113848;27;20023;-72
2021/06/07 04:05:14;;;;;;;4.63;1.95;;;17.10;99.90;;;;;;5113944;27;20037;-72
2021/06/07 04:07:41;;;;;;;7.53;1.90;;;17.20;99.90;;;;;;5109566;27;20023;-72
2021/06/07 04:10:18;;;;;;;6.45;1.48;;;17.30;99.90;;;;;;5103533;27;20085;-72
2021/06/07 04:12:46;;;;;;;3.80;1.50;;;17.30;99.90;;;;;;5115423;27;20031;-72
2021/06/07 04:15:16;;;;;;;3.00;1.55;;;17.30;99.90;;;;;;5114625;27;20118;-72
2021/06/07 04:17:43;;;;;;;5.07;1.75;;;17.30;99.90;;;;;;5097012;27;20027;-72
2021/06/07 04:20:12;;;;;;;5.50;1.85;;;17.30;99.90;;;;;;5111648;27;20377;-72
2021/06/07 04:22:37;;;;;;;5.45;1.73;;;17.20;99.90;;;;;;5110418;27;20041;-72
2021/06/07 04:25:05;;;;;;;4.25;1.55;;;17.30;99.90;;;;;;5114293;27;20461;-72
2021/06/07 04:27:30;;;;;;;3.08;1.30;;;17.20;99.90;;;;;;5115876;27;20431;-72
2021/06/07 04:29:56;;;;;;;3.17;1.10;;;17.20;99.90;;;;;;5114354;28;20072;-72
2021/06/07 04:32:22;;;;;;;4.93;1.50;;;17.20;99.90;;;;;;5121564;28;20214;-73
2021/06/07 04:34:48;;;;;;;3.58;1.60;;;17.20;99.90;;;;;;5115252;28;20396;-72
2021/06/07 04:37:13;;;;;;;4.88;1.38;;;17.20;99.90;;;;;;5106639;28;20036;-72
2021/06/07 04:39:39;;;;;;;4.07;1.48;;;17.10;99.90;;;;;;5115666;28;20035;-72
2021/06/07 04:42:07;;;;;;;6.10;1.42;;;17.20;99.90;;;;;;5094765;28;20081;-72
2021/06/07 04:44:32;;;;;;;2.50;1.30;;;17.20;99.90;;;;;;5118414;27;20400;-72
2021/06/07 04:46:58;;;;;;;3.40;1.60;;;17.20;99.90;;;;;;5120035;28;20047;-72
2021/06/07 04:49:24;;;;;;;6.03;1.83;;;17.10;99.90;;;;;;5107862;27;20706;-72
2021/06/07 04:51:49;;;;;;;3.83;1.70;;;17.20;99.90;;;;;;5124533;27;20035;-72
2021/06/07 04:54:15;;;;;;;5.38;1.70;;;17.20;99.90;;;;;;5113740;28;20038;-72
2021/06/07 04:56:41;;;;;;;4.65;1.70;;;17.30;99.90;;;;;;5118356;27;20067;-72
2021/06/07 04:59:07;;;;;;;3.97;1.83;;;17.30;99.90;;;;;;5110271;28;20035;-72
2021/06/07 05:01:33;;;;;;;7.97;2.30;;;17.40;99.90;;;;;;5117857;28;20059;-73
2021/06/07 05:03:58;;;;;;;6.20;2.00;;;17.30;99.90;;;;;;5120762;27;20119;-72
2021/06/07 05:06:24;;;;;;;4.30;2.33;;;17.20;99.90;;;;;;5123834;27;20299;-72
2021/06/07 05:08:50;;;;;;;5.32;2.15;;;17.20;99.90;;;;;;5123077;27;20430;-72
2021/06/07 05:11:16;;;;;;;8.60;2.40;;;17.30;99.90;;;;;;5121519;27;20036;-72
2021/06/07 05:13:42;;;;;;;6.82;2.33;;;17.10;99.90;;;;;;5119723;27;20023;-72
2021/06/07 05:16:08;;;;;;;7.45;2.22;;;17.10;99.90;;;;;;5121200;27;20413;-72
2021/06/07 05:18:35;;;;;;;7.88;2.38;;;17.10;99.90;;;;;;5122485;27;20480;-72
2021/06/07 05:21:01;;;;;;;6.57;2.03;;;17.10;99.90;;;;;;5116301;27;20027;-72
2021/06/07 05:23:27;;;;;;;5.05;2.00;;;17.20;99.90;;;;;;5122955;27;20019;-72
2021/06/07 05:25:52;;;;;;;6.03;2.20;;;17.30;99.90;;;;;;5126095;27;20046;-72
2021/06/07 05:28:19;;;;;;;5.00;2.08;;;17.30;99.90;;;;;;5125972;27;20031;-72
2021/06/07 05:30:46;;;;;;;8.68;2.50;;;17.30;99.90;;;;;;5110454;27;20050;-72
2021/06/07 05:33:12;;;;;;;5.35;2.40;;;17.20;99.90;;;;;;5113928;27;20019;-72
2021/06/07 05:35:41;;;;;;;4.13;2.17;;;17.30;99.90;;;;;;5108260;27;20088;-72
2021/06/07 05:38:08;;;;;;;7.80;2.72;;;17.30;99.90;;;;;;5116330;27;20055;-72
2021/06/07 05:40:35;;;;;;;4.78;2.35;;;17.20;99.90;;;;;;5111507;27;20032;-72
2021/06/07 05:43:01;;;;;;;7.78;2.90;;;17.20;99.90;;;;;;5114383;27;20362;-72
2021/06/07 05:45:27;;;;;;;5.88;3.30;;;17.30;99.90;;;;;;5117015;27;20035;-73
2021/06/07 05:47:57;;;;;;;7.13;3.15;;;17.40;99.90;;;;;;5121333;27;20074;-72
2021/06/07 05:50:27;;;;;;;6.28;3.10;;;17.50;99.90;;;;;;5116772;27;20671;-72
2021/06/07 05:52:53;;;;;;;7.75;3.15;;;17.50;99.90;;;;;;5122165;27;20019;-72
2021/06/07 05:55:20;;;;;;;7.07;2.67;;;17.50;99.90;;;;;;5124603;27;20046;-72
2021/06/07 05:57:49;;;;;;;9.40;3.50;;;17.50;99.90;;;;;;5121813;27;20371;-72
2021/06/07 06:00:17;;;;;;;11.65;3.53;;;17.60;99.90;;;;;;5127175;27;20063;-72
2021/06/07 06:02:43;;;;;;;8.40;3.40;;;17.70;99.90;;;;;;5124461;27;20532;-73
2021/06/07 06:05:09;;;;;;;6.65;3.72;;;17.60;99.90;;;;;;5121405;27;20096;-72
2021/06/07 06:07:35;;;;;;;7.38;3.22;;;18.00;99.90;;;;;;5122027;27;20031;-72
2021/06/07 06:10:01;;;;;;;8.55;3.63;;;18.00;99.90;;;;;;5125437;27;20113;-72
2021/06/07 06:12:27;;;;;;;6.25;3.67;;;18.10;99.90;;;;;;5117403;27;20031;-72
2021/06/07 06:14:53;;;;;;;7.75;3.22;;;18.40;99.90;;;;;;5102357;27;20041;-73
2021/06/07 06:17:19;;;;;;;8.02;2.90;;;18.90;99.90;;;;;;5118478;27;20458;-73
2021/06/07 06:19:45;;;;;;;7.90;2.95;;;19.20;99.90;;;;;;5120008;27;20039;-73
2021/06/07 06:22:10;;;;;;;7.28;3.20;;;19.50;99.90;;;;;;5117566;27;20076;-73
2021/06/07 06:24:36;;;;;;;7.50;3.22;;;19.80;99.90;;;;;;5115625;27;20039;-73
2021/06/07 06:27:03;;;;;;;4.57;2.80;;;19.90;99.90;;;;;;5114323;27;20027;-73
2021/06/07 06:29:28;;;;;;;7.20;3.20;;;19.90;99.90;;;;;;5114150;27;20023;-72
2021/06/07 06:31:54;;;;;;;9.10;2.90;;;20.10;99.90;;;;;;5118886;27;20043;-72
2021/06/07 06:34:20;;;;;;;10.45;3.88;;;20.30;99.90;;;;;;5115386;27;20087;-73
2021/06/07 06:36:46;;;;;;;10.73;3.50;;;19.90;99.90;;;;;;5101177;27;20385;-72
2021/06/07 06:39:12;;;;;;;10.48;3.92;;;20.20;99.90;;;;;;5111628;27;20429;-73
2021/06/07 06:41:38;;;;;;;7.78;3.05;;;20.50;99.90;;;;;;5114859;27;20563;-72
2021/06/07 06:44:04;;;;;;;8.05;2.92;;;20.40;99.90;;;;;;5115920;27;20054;-72
2021/06/07 06:46:30;;;;;;;6.25;2.72;;;21.10;99.90;;;;;;5118390;27;20038;-73
2021/06/07 06:48:56;;;;;;;6.22;2.75;;;21.40;99.90;;;;;;5116821;27;20042;-73
2021/06/07 06:51:22;;;;;;;5.90;2.80;;;21.50;99.90;;;;;;5109784;27;20031;-73
2021/06/07 06:53:48;;;;;;;6.90;3.00;;;21.50;99.90;;;;;;5105669;27;20058;-73
2021/06/07 06:56:14;;;;;;;6.35;3.13;;;21.60;99.90;;;;;;5114803;27;20092;-73
2021/06/07 06:58:40;;;;;;;6.03;3.25;;;21.00;99.90;;;;;;5114163;27;20039;-73
2021/06/07 07:01:07;;;;;;;5.93;3.20;;;21.00;99.90;;;;;;5113888;27;20545;-73
2021/06/07 07:03:33;;;;;;;6.80;2.85;;;20.80;99.90;;;;;;5114159;27;20384;-73
2021/06/07 07:05:58;;;;;;;5.85;2.40;;;21.20;99.90;;;;;;5116347;27;20037;-73
2021/06/07 07:08:24;;;;;;;5.07;2.38;;;21.90;99.90;;;;;;5115698;27;20031;-73
2021/06/07 07:10:50;;;;;;;5.65;2.72;;;22.30;99.90;;;;;;5117065;27;20031;-73
2021/06/07 07:13:16;;;;;;;10.55;2.42;;;22.70;99.90;;;;;;5118589;27;20031;-72
2021/06/07 07:15:42;;;;;;;4.93;2.33;;;23.00;99.90;;;;;;5115266;22;20127;-73
2021/06/07 07:18:09;;;;;;;4.47;2.30;;;22.80;99.90;;;;;;5083789;28;20042;-73
2021/06/07 07:20:36;;;;;;;3.60;1.90;;;22.80;99.90;;;;;;5082717;28;20036;-73
2021/06/07 07:23:04;;;;;;;4.88;2.88;;;22.00;99.90;;;;;;5082944;28;20038;-73
2021/06/07 07:25:29;;;;;;;5.80;1.90;;;21.80;99.90;;;;;;5084048;28;20028;-73
2021/06/07 07:27:55;;;;;;;5.22;2.20;;;21.40;99.90;;;;;;5085830;28;20035;-73
2021/06/07 07:30:26;;;;;;;4.93;2.22;;;20.90;99.90;;;;;;5081060;28;20038;-73
2021/06/07 07:32:52;;;;;;;3.28;1.75;;;21.10;99.90;;;;;;5080033;28;20050;-73
2021/06/07 07:35:18;;;;;;;7.03;1.90;;;20.80;99.90;;;;;;5063048;28;20494;-73
2021/06/07 07:37:44;;;;;;;5.40;1.85;;;20.80;99.90;;;;;;5085017;28;20487;-73
2021/06/07 07:40:12;;;;;;;3.53;1.55;;;21.00;99.90;;;;;;5079791;28;20134;-73
2021/06/07 07:42:38;;;;;;;4.82;1.52;;;21.20;99.90;;;;;;5066318;28;20039;-73
2021/06/07 07:45:09;;;;;;;2.90;1.42;;;21.50;99.90;;;;;;5082132;28;20024;-73
2021/06/07 07:47:35;;;;;;;4.07;1.65;;;21.50;99.90;;;;;;5079743;28;20039;-73
2021/06/07 07:50:02;;;;;;;4.32;2.00;;;21.10;99.90;;;;;;5075684;28;20036;-73
2021/06/07 07:52:28;;;;;;;5.55;2.05;;;20.40;99.90;;;;;;5078117;28;20027;-73
2021/06/07 07:54:54;;;;;;;6.93;2.35;;;20.70;99.90;;;;;;5074595;28;20630;-73
2021/06/07 07:57:21;;;;;;;6.35;2.45;;;21.00;99.90;;;;;;5079372;28;20039;-73
2021/06/07 07:59:47;;;;;;;3.92;2.00;;;20.70;99.90;;;;;;5072435;28;20036;-73
2021/06/07 08:02:13;;;;;;;4.05;1.38;;;21.70;99.90;;;;;;5071993;28;20708;-73
2021/06/07 08:04:39;;;;;;;3.80;1.65;;;22.20;99.90;;;;;;5077610;28;20072;-72
2021/06/07 08:07:05;;;;;;;8.27;2.97;;;21.80;99.90;;;;;;5077999;28;20032;-72
2021/06/07 08:09:32;;;;;;;4.20;1.50;;;22.20;99.90;;;;;;5068082;28;20051;-72
2021/06/07 08:11:59;;;;;;;2.95;1.50;;;22.40;99.90;;;;;;5078583;28;20038;-73
2021/06/07 08:14:25;;;;;;;3.83;1.65;;;22.60;99.90;;;;;;5076745;28;20048;-72
2021/06/07 08:16:50;;;;;;;5.93;2.47;;;22.30;99.90;;;;;;5077460;28;20491;-72
2021/06/07 08:19:16;;;;;;;3.78;1.45;;;22.30;99.90;;;;;;5074133;28;20553;-72
2021/06/07 08:21:42;;;;;;;3.60;1.65;;;22.30;99.90;;;;;;5078271;28;20032;-72
2021/06/07 08:24:08;;;;;;;1.98;1.17;;;21.70;99.90;;;;;;5059419;28;20030;-73
2021/06/07 08:26:33;;;;;;;3.22;1.48;;;21.90;99.90;;;;;;5076049;28;20044;-72
2021/06/07 08:28:59;;;;;;;3.53;1.30;;;21.80;99.90;;;;;;5078386;28;20028;-73
2021/06/07 08:31:26;;;;;;;5.05;1.42;;;21.90;99.90;;;;;;5076106;28;20042;-72
2021/06/07 08:33:52;;;;;;;4.93;1.25;;;21.30;99.90;;;;;;5080142;28;20541;-72
2021/06/07 08:36:17;;;;;;;3.40;1.50;;;21.50;99.90;;;;;;5080639;28;20040;-72
2021/06/07 08:38:43;;;;;;;2.80;1.40;;;21.30;99.90;;;;;;5079796;28;20071;-73
2021/06/07 08:41:10;;;;;;;2.80;1.48;;;21.20;99.90;;;;;;5080791;28;20194;-73
2021/06/07 08:43:35;;;;;;;3.55;1.48;;;21.30;99.90;;;;;;5079701;28;20039;-73
2021/06/07 08:46:02;;;;;;;4.03;1.40;;;21.30;99.90;;;;;;5078706;28;20040;-73
2021/06/07 08:48:27;;;;;;;6.53;1.85;;;21.20;99.90;;;;;;5080699;28;20536;-73
2021/06/07 08:50:53;;;;;;;3.58;1.50;;;21.00;99.90;;;;;;5081391;28;20130;-73
2021/06/07 08:53:19;;;;;;;3.08;1.50;;;20.80;99.90;;;;;;5079983;28;20097;-73
2021/06/07 08:55:45;;;;;;;6.18;1.65;;;20.90;99.90;;;;;;5079669;28;20043;-73
2021/06/07 08:58:11;;;;;;;3.33;1.35;;;21.20;99.90;;;;;;5084262;28;20116;-73
2021/06/07 09:00:40;;;;;;;3.55;1.20;;;21.50;99.90;;;;;;5084318;28;20077;-73
2021/06/07 09:03:11;;;;;;;2.53;1.08;;;21.50;99.90;;;;;;5081746;28;20475;-73
2021/06/07 09:05:39;;;;;;;6.38;1.42;;;21.60;99.90;;;;;;5082946;28;20366;-72
2021/06/07 09:08:10;;;;;;;2.78;1.00;;;21.40;99.90;;;;;;5080406;28;20417;-73
2021/06/07 09:10:44;;;;;;;4.63;1.10;;;21.60;99.90;;;;;;5083801;28;20043;-73
2021/06/07 09:13:12;;;;;;;4.35;1.10;;;21.60;99.90;;;;;;5067303;28;20182;-72
2021/06/07 09:15:42;;;;;;;3.35;1.27;;;21.60;99.90;;;;;;5082323;28;20048;-72
2021/06/07 09:18:12;;;;;;;2.03;1.00;;;21.50;99.90;;;;;;5078081;28;20035;-72
2021/06/07 09:20:39;;;;;;;3.88;1.38;;;21.50;99.90;;;;;;5062539;28;20052;-72
2021/06/07 09:23:14;;;;;;;1.58;0.85;;;21.60;99.90;;;;;;5075620;28;20043;-72
2021/06/07 09:25:45;;;;;;;2.25;0.70;;;21.60;99.90;;;;;;5075264;28;20036;-72
2021/06/07 09:28:18;;;;;;;3.00;1.07;;;21.40;99.90;;;;;;5080327;28;20435;-72
2021/06/07 09:30:50;;;;;;;3.15;0.93;;;21.50;99.90;;;;;;5076792;28;20477;-72
2021/06/07 09:33:25;;;;;;;;;;;21.50;99.90;;;;;;5075226;28;20052;-73
2021/06/07 09:36:27;;;;;;;2.22;1.00;;;21.30;99.90;;;;;;5077431;28;19963;-72
2021/06/07 09:39:05;;;;;;;4.18;1.45;;;21.10;99.90;;;;;;5078480;28;20397;-72
2021/06/07 09:41:44;;;;;;;6.80;1.60;;;21.20;99.90;;;;;;5074999;28;20036;-72
2021/06/07 09:44:17;;;;;;;3.17;1.00;;;21.40;99.90;;;;;;5074015;28;20776;-73
2021/06/07 09:46:42;;;;;;;2.75;1.10;;;21.20;99.90;;;;;;5081522;28;20024;-73
2021/06/07 09:49:14;;;;;;;2.38;1.00;;;21.30;99.90;;;;;;5083023;28;20082;-72
2021/06/07 09:51:50;;;;;;;3.63;1.30;;;21.30;99.90;;;;;;5078248;28;20036;-73
2021/06/07 09:54:15;;;;;;;3.08;0.93;;;21.30;99.90;;;;;;5079470;28;20367;-72
2021/06/07 09:56:58;;;;;;;2.75;0.90;;;21.20;99.90;;;;;;5080135;28;20469;-72
2021/06/07 09:59:23;;;;;;;2.55;1.10;;;21.30;99.90;;;;;;5077778;28;20416;-72
2021/06/07 10:01:50;;;;;;;3.65;1.00;;;21.40;99.90;;;;;;5078711;28;20069;-72
2021/06/07 10:04:15;;;;;;;4.20;0.98;;;21.30;99.90;;;;;;5078474;28;20362;-72
2021/06/07 10:06:42;;;;;;;3.53;1.20;;;21.10;99.90;;;;;;5078744;28;20035;-72
2021/06/07 10:09:09;;;;;;;6.13;1.33;;;21.20;99.90;;;;;;5073198;28;20348;-72
2021/06/07 10:11:40;;;;;;;5.93;1.40;;;21.20;99.90;;;;;;5075408;28;20039;-72
2021/06/07 10:14:08;;;;;;;4.38;1.20;;;21.10;99.90;;;;;;5074296;28;20111;-72
2021/06/07 10:16:35;;;;;;;6.78;1.00;;;21.30;99.90;;;;;;5075785;28;20056;-72
2021/06/07 10:19:06;;;;;;;2.95;1.20;;;21.40;99.90;;;;;;5079728;28;20077;-72
2021/06/07 10:21:31;;;;;;;4.35;1.15;;;21.30;99.90;;;;;;5071269;28;20127;-73
2021/06/07 10:23:57;;;;;;;3.15;1.10;;;21.30;99.90;;;;;;5076202;28;20032;-72
2021/06/07 10:26:23;;;;;;;11.80;2.80;;;21.40;99.90;;;;;;5075567;28;20078;-72
2021/06/07 10:28:53;;;;;;;5.38;1.30;;;21.60;99.90;;;;;;5083846;28;20171;-72
2021/06/07 10:31:20;;;;;;;5.25;1.27;;;21.60;99.90;;;;;;5082476;28;20086;-72
2021/06/07 10:34:04;;;;;;;2.03;1.00;;;21.60;99.90;;;;;;5080409;28;20036;-72
2021/06/07 10:36:34;;;;;;;2.15;0.98;;;21.40;99.90;;;;;;5083585;28;20105;-73
2021/06/07 10:39:19;;;;;;;3.72;1.30;;;21.50;99.90;;;;;;5082199;28;20031;-72
2021/06/07 10:41:56;;;;;;;3.92;1.25;;;21.50;99.90;;;;;;5079781;28;20025;-73
2021/06/07 10:44:45;;;;;;;2.70;1.17;;;21.70;99.90;;;;;;5083544;28;20059;-72
2021/06/07 10:47:14;;;;;;;3.75;0.90;;;21.60;99.90;;;;;;5082629;28;20032;-72
2021/06/07 10:49:47;;;;;;;3.55;1.33;;;21.40;99.90;;;;;;5075921;28;20114;-72
2021/06/07 10:52:15;;;;;;;4.25;1.20;;;21.60;99.90;;;;;;5056503;28;20035;-72
2021/06/07 10:54:43;;;;;;;6.60;1.38;;;21.70;99.90;;;;;;5078072;28;20064;-72
2021/06/07 10:57:38;;;;;;;3.20;1.30;;;21.90;99.90;;;;;;5081814;28;20020;-72
2021/06/07 11:00:07;;;;;;;5.97;1.40;;;22.00;99.90;;;;;;5068470;28;20063;-73
2021/06/07 11:02:35;;;;;;;2.20;1.00;;;22.10;99.90;;;;;;5080572;28;20126;-73
2021/06/07 11:05:13;;;;;;;3.30;1.30;;;22.00;99.90;;;;;;5077762;28;20040;-72
2021/06/07 11:07:43;;;;;;;5.60;1.27;;;22.00;99.90;;;;;;5082007;28;20527;-72
2021/06/07 11:10:19;;;;;;;4.38;1.10;;;22.10;99.90;;;;;;5080173;28;20040;-73
2021/06/07 11:12:46;;;;;;;3.28;1.20;;;22.00;99.90;;;;;;5081092;28;20047;-73
2021/06/07 11:15:21;;;;;;;3.45;1.05;;;22.10;99.90;;;;;;5060779;28;20055;-72
2021/06/07 11:17:49;;;;;;;2.50;1.25;;;22.10;99.90;;;;;;5076395;28;20032;-72
2021/06/07 11:20:31;;;;;;;5.18;1.30;;;22.10;99.90;;;;;;5077285;28;20205;-72
2021/06/07 11:23:12;;;;;;;2.92;1.05;;;22.00;99.90;;;;;;5076130;28;20050;-72
2021/06/07 11:25:50;;;;;;;2.20;0.98;;;22.00;99.90;;;;;;5071946;28;20091;-72
2021/06/07 11:28:43;;;;;;;3.30;1.13;;;21.90;99.90;;;;;;5077523;28;20029;-73
2021/06/07 11:31:18;;;;;;;3.70;1.60;;;22.00;99.90;;;;;;5077668;28;20458;-72
2021/06/07 11:33:56;;;;;;;2.10;1.20;;;22.20;99.90;;;;;;5079612;28;20063;-73
2021/06/07 11:36:50;;;;;;;5.63;1.33;;;22.30;99.90;;;;;;5079153;28;20040;-75
2021/06/07 11:39:20;;;;;;;3.58;1.42;;;22.20;99.90;;;;;;5075908;28;20021;-75
2021/06/07 11:41:48;;;;;;;7.13;1.45;;;22.30;99.90;;;;;;5082419;28;20449;-74
2021/06/07 11:44:16;;;;;;;2.20;0.90;;;22.20;99.90;;;;;;5078272;28;20024;-74
2021/06/07 11:46:41;;;;;;;7.78;1.70;;;22.20;99.90;;;;;;5078365;28;20140;-74
2021/06/07 11:49:09;;;;;;;2.85;1.23;;;22.10;99.90;;;;;;5081117;28;20614;-74
2021/06/07 11:51:38;;;;;;;3.58;1.40;;;22.30;99.90;;;;;;5084286;28;20032;-74
2021/06/07 11:54:27;;;;;;;4.35;1.30;;;22.40;99.90;;;;;;5085653;28;20024;-74
2021/06/07 11:57:00;;;;;;;3.00;1.00;;;22.20;99.90;;;;;;5077646;28;20113;-75
2021/06/07 11:59:37;;;;;;;2.58;1.17;;;22.30;99.90;;;;;;5078156;28;20027;-74
2021/06/07 12:02:11;;;;;;;3.42;1.38;;;22.60;99.90;;;;;;5079830;28;20031;-74
2021/06/07 12:04:37;;;;;;;3.05;1.10;;;22.60;99.90;;;;;;5082591;28;20032;-74
2021/06/07 12:07:08;;;;;;;3.47;1.20;;;22.40;99.90;;;;;;5079929;28;20077;-74
2021/06/07 12:09:36;;;;;;;2.42;1.20;;;22.70;99.90;;;;;;5083477;28;20124;-74
2021/06/07 12:12:03;;;;;;;3.72;1.55;;;22.90;99.90;;;;;;5082072;28;20123;-74
2021/06/07 12:14:32;;;;;;;3.08;1.20;;;23.00;99.90;;;;;;5079940;28;20024;-74
2021/06/07 12:17:05;;;;;;;3.40;1.40;;;23.10;99.90;;;;;;5076812;28;20502;-74
2021/06/07 12:19:40;;;;;;;8.48;1.30;;;23.00;99.90;;;;;;5079424;28;20043;-74
2021/06/07 12:22:23;;;;;;;2.35;1.15;;;22.90;99.90;;;;;;5074437;28;20032;-74
2021/06/07 12:25:20;;;;;;;4.18;1.20;;;23.20;99.90;;;;;;5079571;28;20031;-74
2021/06/07 12:30:36;;;;;;;3.00;1.20;;;23.10;99.90;;;;;;5078652;28;20082;-74
2021/06/07 12:33:02;;;;;;;3.22;1.00;;;23.10;99.90;;;;;;5077549;28;20250;-74
2021/06/07 12:35:31;;;;;;;2.15;0.68;;;23.10;99.90;;;;;;5078483;28;20066;-74
2021/06/07 12:38:09;;;;;;;3.00;1.05;;;23.50;99.90;;;;;;5079991;28;20039;-74
2021/06/07 12:40:46;;;;;;;4.18;1.10;;;23.40;99.90;;;;;;5080434;28;20032;-74
2021/06/07 12:43:18;;;;;;;2.70;1.25;;;23.60;99.90;;;;;;5077457;28;20442;-74
2021/06/07 12:45:46;;;;;;;2.47;1.05;;;23.70;99.90;;;;;;5077683;28;20190;-74
2021/06/07 12:48:22;;;;;;;2.47;0.65;;;23.50;99.90;;;;;;5081593;28;20028;-74
2021/06/07 12:51:09;;;;;;;3.13;1.05;;;23.40;99.90;;;;;;5075129;28;20031;-74
2021/06/07 12:53:46;;;;;;;2.85;1.05;;;23.50;99.90;;;;;;5072369;28;20140;-74
2021/06/07 12:56:30;;;;;;;5.95;1.10;;;23.20;99.90;;;;;;5060061;28;20040;-74
2021/06/07 12:58:58;;;;;;;3.92;1.20;;;23.50;99.90;;;;;;5078673;28;20362;-74